createdAt,value
2023-05-14T00:01:36.090Z,100718.80
2023-05-14T00:04:09.713Z,100715.80
2023-05-14T00:06:42.882Z,100713.00
2023-05-14T00:09:16.268Z,100709.20
2023-05-14T00:11:49.475Z,100707.80
2023-05-14T00:14:22.714Z,100704.40
2023-05-14T00:16:55.865Z,100700.60
2023-05-14T00:19:29.022Z,100700.20
2023-05-14T00:22:02.290Z,100697.80
2023-05-14T00:24:35.331Z,100696.00
2023-05-14T00:27:09.957Z,100697.20
2023-05-14T00:29:43.284Z,100692.80
2023-05-14T00:32:16.543Z,100696.00
2023-05-14T00:34:50.047Z,100692.80
2023-05-14T00:37:23.235Z,100690.20
2023-05-14T00:39:56.400Z,100692.40
2023-05-14T00:42:29.830Z,100688.60
2023-05-14T00:45:03.123Z,100689.20
2023-05-14T00:47:36.590Z,100688.80
2023-05-14T00:50:12.278Z,100695.60
2023-05-14T00:52:45.827Z,100689.40
2023-05-14T00:55:22.372Z,100692.40
2023-05-14T00:57:59.295Z,100697.80
2023-05-14T01:00:32.604Z,100696.40
2023-05-14T01:03:07.747Z,100699.20
2023-05-14T01:05:54.843Z,100691.20
2023-05-14T01:08:37.578Z,100690.40
2023-05-14T01:11:18.569Z,100686.20
2023-05-14T01:14:04.529Z,100684.40
2023-05-14T01:16:40.623Z,100683.40
2023-05-14T01:19:31.096Z,100684.80
2023-05-14T01:22:04.403Z,100677.00
2023-05-14T01:24:39.426Z,100677.40
2023-05-14T01:27:23.703Z,100668.80
2023-05-14T01:30:06.434Z,100674.40
2023-05-14T01:32:42.483Z,100672.80
2023-05-14T01:35:16.597Z,100672.00
2023-05-14T01:37:51.309Z,100675.20
2023-05-14T01:40:26.475Z,100677.40
2023-05-14T01:43:00.344Z,100675.20
2023-05-14T01:45:36.415Z,100673.80
2023-05-14T01:48:10.376Z,100672.80
2023-05-14T01:50:44.024Z,100668.80
2023-05-14T01:53:17.496Z,100668.80
2023-05-14T01:55:50.670Z,100670.20
2023-05-14T01:58:24.002Z,100666.80
2023-05-14T02:00:57.295Z,100668.20
2023-05-14T02:03:31.262Z,100656.40
2023-05-14T02:06:05.105Z,100659.60
2023-05-14T02:08:38.411Z,100659.20
2023-05-14T02:11:11.698Z,100655.40
2023-05-14T02:13:45.166Z,100653.60
2023-05-14T02:16:19.337Z,100655.00
2023-05-14T02:18:52.570Z,100657.00
2023-05-14T02:21:25.997Z,100660.00
2023-05-14T02:23:59.179Z,100658.40
2023-05-14T02:26:32.362Z,100658.40
2023-05-14T02:29:05.992Z,100657.40
2023-05-14T02:31:39.429Z,100660.40
2023-05-14T02:34:12.601Z,100658.60
2023-05-14T02:36:45.965Z,100656.20
2023-05-14T02:39:19.790Z,100657.40
2023-05-14T02:41:52.988Z,100655.20
2023-05-14T02:44:26.080Z,100655.00
2023-05-14T02:46:59.754Z,100652.20
2023-05-14T02:49:40.163Z,100646.20
2023-05-14T02:52:13.262Z,100648.20
2023-05-14T02:54:46.625Z,100644.00
2023-05-14T02:57:19.875Z,100641.40
2023-05-14T02:59:53.128Z,100641.60
2023-05-14T03:02:26.905Z,100638.40
2023-05-14T03:05:00.716Z,100635.80
2023-05-14T03:07:34.048Z,100635.40
2023-05-14T03:10:09.444Z,100635.20
2023-05-14T03:12:42.595Z,100638.40
2023-05-14T03:15:16.145Z,100634.20
2023-05-14T03:17:49.402Z,100629.60
2023-05-14T03:20:24.067Z,100631.80
2023-05-14T03:22:59.033Z,100635.80
2023-05-14T03:25:32.222Z,100631.00
2023-05-14T03:28:05.684Z,100638.80
2023-05-14T03:30:39.597Z,100636.00
2023-05-14T03:33:13.417Z,100643.20
2023-05-14T03:35:46.605Z,100644.40
2023-05-14T03:38:19.900Z,100645.80
2023-05-14T03:40:53.871Z,100641.80
2023-05-14T03:43:27.188Z,100644.40
2023-05-14T03:46:01.297Z,100641.00
2023-05-14T03:48:35.059Z,100637.60
2023-05-14T03:51:10.017Z,100639.80
2023-05-14T03:53:43.209Z,100639.40
2023-05-14T03:56:16.626Z,100637.40
2023-05-14T03:58:49.912Z,100640.60
2023-05-14T04:01:23.060Z,100640.80
2023-05-14T04:03:57.163Z,100638.80
2023-05-14T04:06:31.240Z,100631.60
2023-05-14T04:09:04.485Z,100632.60
2023-05-14T04:11:37.961Z,100615.40
2023-05-14T04:14:11.800Z,100595.40
2023-05-14T04:16:45.539Z,100595.20
2023-05-14T04:19:19.351Z,100595.80
2023-05-14T04:21:52.634Z,100591.20
2023-05-14T04:24:25.864Z,100595.20
2023-05-14T04:26:59.181Z,100597.40
2023-05-14T04:29:32.964Z,100590.20
2023-05-14T04:32:07.943Z,100587.40
2023-05-14T04:34:41.341Z,100584.40
2023-05-14T04:37:14.511Z,100580.20
2023-05-14T04:39:47.942Z,100581.40
2023-05-14T04:42:21.330Z,100581.00
2023-05-14T04:44:54.469Z,100578.00
2023-05-14T04:47:27.735Z,100579.40
2023-05-14T04:50:01.345Z,100571.20
2023-05-14T04:52:34.525Z,100565.00
2023-05-14T04:55:09.634Z,100561.80
2023-05-14T04:57:42.843Z,100551.40
2023-05-14T05:00:19.210Z,100544.00
2023-05-14T05:02:52.459Z,100541.80
2023-05-14T05:05:26.492Z,100535.00
2023-05-14T05:07:59.944Z,100534.00
2023-05-14T05:10:33.424Z,100526.80
2023-05-14T05:13:06.754Z,100522.60
2023-05-14T05:15:40.297Z,100517.60
2023-05-14T05:18:13.733Z,100510.00
2023-05-14T05:20:46.989Z,100527.00
2023-05-14T05:23:20.202Z,100530.00
2023-05-14T05:25:53.403Z,100516.80
2023-05-14T05:28:26.603Z,100525.40
2023-05-14T05:30:59.825Z,100517.20
2023-05-14T05:33:33.167Z,100508.80
2023-05-14T05:36:06.729Z,100500.80
2023-05-14T05:38:39.956Z,100510.40
2023-05-14T05:41:13.265Z,100523.20
2023-05-14T05:43:46.880Z,100520.40
2023-05-14T05:46:20.363Z,100513.00
2023-05-14T05:48:54.051Z,100487.40
2023-05-14T05:51:27.449Z,100472.60
2023-05-14T05:54:00.920Z,100483.40
2023-05-14T05:56:34.171Z,100483.00
2023-05-14T05:59:07.321Z,100501.00
2023-05-14T06:01:43.638Z,100519.80
2023-05-14T06:04:16.944Z,100514.00
2023-05-14T06:06:50.202Z,100534.00
2023-05-14T06:09:23.477Z,100543.60
2023-05-14T06:11:56.653Z,100533.40
2023-05-14T06:14:29.864Z,100530.60
2023-05-14T06:17:03.160Z,100525.60
2023-05-14T06:19:36.298Z,100538.20
2023-05-14T06:22:09.599Z,100533.40
2023-05-14T06:24:42.944Z,100524.80
2023-05-14T06:27:16.203Z,100539.80
2023-05-14T06:29:49.832Z,100534.20
2023-05-14T06:32:23.139Z,100530.00
2023-05-14T06:34:56.418Z,100548.20
2023-05-14T06:37:29.592Z,100541.80
2023-05-14T06:40:03.716Z,100530.40
2023-05-14T06:42:36.621Z,100506.80
2023-05-14T06:45:13.059Z,100481.80
2023-05-14T06:47:46.240Z,100452.20
2023-05-14T06:50:19.669Z,100489.60
2023-05-14T06:52:52.887Z,100462.60
2023-05-14T06:55:26.385Z,100454.20
2023-05-14T06:57:59.598Z,100471.00
2023-05-14T07:00:33.157Z,100448.60
2023-05-14T07:03:06.818Z,100449.80
2023-05-14T07:05:41.336Z,100451.60
2023-05-14T07:08:14.694Z,100450.60
2023-05-14T07:10:47.961Z,100447.00
2023-05-14T07:13:21.153Z,100451.60
2023-05-14T07:15:55.806Z,100454.60
2023-05-14T07:18:29.093Z,100461.20
2023-05-14T07:21:02.265Z,100463.20
2023-05-14T07:23:36.707Z,100467.60
2023-05-14T07:26:11.110Z,100461.80
2023-05-14T07:28:44.467Z,100455.20
2023-05-14T07:31:17.703Z,100458.00
2023-05-14T07:33:50.993Z,100448.00
2023-05-14T07:36:24.257Z,100461.20
2023-05-14T07:38:57.787Z,100463.40
2023-05-14T07:41:30.989Z,100462.40
2023-05-14T07:44:04.883Z,100460.40
2023-05-14T07:46:38.895Z,100450.00
2023-05-14T07:49:12.188Z,100450.20
2023-05-14T07:51:45.608Z,100451.00
2023-05-14T07:54:20.647Z,100455.20
2023-05-14T07:56:53.815Z,100451.00
2023-05-14T07:59:27.404Z,100450.20
2023-05-14T08:02:00.688Z,100453.60
2023-05-14T08:04:36.336Z,100446.40
2023-05-14T08:07:10.069Z,100454.60
2023-05-14T08:09:43.255Z,100441.60
2023-05-14T08:12:16.664Z,100466.00
2023-05-14T08:14:49.764Z,100439.80
2023-05-14T08:17:23.111Z,100442.20
2023-05-14T08:19:57.124Z,100435.40
2023-05-14T08:22:30.388Z,100437.20
2023-05-14T08:25:03.949Z,100435.80
2023-05-14T08:27:37.274Z,100438.40
2023-05-14T08:30:12.693Z,100442.40
2023-05-14T08:32:46.070Z,100431.80
2023-05-14T08:35:19.402Z,100424.80
2023-05-14T08:37:52.613Z,100418.80
2023-05-14T08:40:26.329Z,100434.40
2023-05-14T08:43:01.756Z,100426.60
2023-05-14T08:45:38.955Z,100421.80
2023-05-14T08:48:18.237Z,100419.00
2023-05-14T08:50:51.624Z,100421.40
2023-05-14T08:53:25.125Z,100418.80
2023-05-14T08:55:59.753Z,100423.00
2023-05-14T08:58:33.045Z,100413.80
2023-05-14T09:01:06.241Z,100408.60
2023-05-14T09:03:40.880Z,100403.00
2023-05-14T09:06:15.714Z,100402.60
2023-05-14T09:08:50.382Z,100401.40
2023-05-14T09:11:24.865Z,100396.20
2023-05-14T09:13:58.132Z,100397.40
2023-05-14T09:16:31.585Z,100393.60
2023-05-14T09:19:05.200Z,100399.80
2023-05-14T09:21:39.304Z,100404.00
2023-05-14T09:24:22.431Z,100393.60
2023-05-14T09:26:58.356Z,100390.00
2023-05-14T09:29:32.976Z,100395.00
2023-05-14T09:32:07.604Z,100384.20
2023-05-14T09:34:41.316Z,100384.40
2023-05-14T09:37:14.674Z,100388.80
2023-05-14T09:39:47.952Z,100388.60
2023-05-14T09:42:21.680Z,100380.40
2023-05-14T09:44:57.656Z,100373.20
2023-05-14T09:47:30.924Z,100375.20
2023-05-14T09:50:04.530Z,100418.40
2023-05-14T09:53:00.066Z,100430.80
2023-05-14T09:55:34.673Z,100428.80
2023-05-14T09:58:08.392Z,100433.20
2023-05-14T10:00:45.540Z,100429.40
2023-05-14T10:03:21.513Z,100426.60
2023-05-14T10:05:56.339Z,100362.80
2023-05-14T10:08:36.528Z,100411.20
2023-05-14T10:11:14.819Z,100404.60
2023-05-14T10:13:55.111Z,100407.00
2023-05-14T10:16:42.459Z,100405.20
2023-05-14T10:19:27.063Z,100394.60
2023-05-14T10:22:10.631Z,100400.00
2023-05-14T10:24:46.347Z,100379.00
2023-05-14T10:27:21.382Z,100388.20
2023-05-14T10:29:59.659Z,100351.40
2023-05-14T10:32:45.585Z,100360.40
2023-05-14T10:35:25.739Z,100384.40
2023-05-14T10:38:00.155Z,100381.00
2023-05-14T10:40:33.438Z,100376.60
2023-05-14T10:43:08.778Z,100378.40
2023-05-14T10:45:42.006Z,100368.80
2023-05-14T10:48:16.056Z,100370.20
2023-05-14T10:50:53.033Z,100365.40
2023-05-14T10:53:37.007Z,100367.00
2023-05-14T10:56:13.863Z,100367.00
2023-05-14T10:58:51.028Z,100360.60
2023-05-14T11:01:30.320Z,100364.00
2023-05-14T11:04:06.636Z,100362.00
2023-05-14T11:06:43.461Z,100358.60
2023-05-14T11:09:21.305Z,100359.20
2023-05-14T11:11:54.885Z,100348.20
2023-05-14T11:14:29.234Z,100337.80
2023-05-14T11:17:03.328Z,100338.80
2023-05-14T11:19:36.880Z,100334.40
2023-05-14T11:22:10.316Z,100335.60
2023-05-14T11:24:43.690Z,100336.40
2023-05-14T11:27:17.627Z,100334.20
2023-05-14T11:29:51.912Z,100329.80
2023-05-14T11:32:25.322Z,100332.40
2023-05-14T11:34:58.666Z,100330.40
2023-05-14T11:37:31.847Z,100316.40
2023-05-14T11:40:09.054Z,100318.20
2023-05-14T11:42:43.091Z,100319.40
2023-05-14T11:45:25.398Z,100320.80
2023-05-14T11:47:58.711Z,100313.80
2023-05-14T11:50:36.804Z,100313.60
2023-05-14T11:53:10.081Z,100307.40
2023-05-14T11:55:49.144Z,100298.60
2023-05-14T11:58:25.468Z,100299.20
2023-05-14T12:00:59.613Z,100300.60
2023-05-14T12:03:34.397Z,100311.80
2023-05-14T12:06:11.300Z,100296.60
2023-05-14T12:08:44.419Z,100294.20
2023-05-14T12:11:22.087Z,100289.20
2023-05-14T12:13:57.112Z,100286.00
2023-05-14T12:16:36.210Z,100282.20
2023-05-14T12:19:15.277Z,100283.60
2023-05-14T12:21:52.897Z,100290.00
2023-05-14T12:24:28.149Z,100288.80
2023-05-14T12:27:06.159Z,100285.00
2023-05-14T12:29:41.225Z,100280.00
2023-05-14T12:32:15.629Z,100281.20
2023-05-14T12:34:48.783Z,100285.60
2023-05-14T12:37:21.981Z,100280.40
2023-05-14T12:39:55.609Z,100280.20
2023-05-14T12:42:28.901Z,100275.00
2023-05-14T12:45:05.613Z,100265.80
2023-05-14T12:47:39.003Z,100262.00
2023-05-14T12:50:13.960Z,100264.20
2023-05-14T12:52:49.406Z,100262.60
2023-05-14T12:55:23.098Z,100266.80
2023-05-14T12:57:56.614Z,100263.00
2023-05-14T13:00:29.908Z,100258.00
2023-05-14T13:03:03.081Z,100261.80
2023-05-14T13:05:36.357Z,100261.20
2023-05-14T13:08:10.349Z,100248.80
2023-05-14T13:10:43.635Z,100247.40
2023-05-14T13:13:17.655Z,100247.00
2023-05-14T13:15:51.300Z,100244.00
2023-05-14T13:18:26.729Z,100237.40
2023-05-14T13:21:00.130Z,100231.60
2023-05-14T13:23:33.844Z,100236.20
2023-05-14T13:26:07.151Z,100233.00
2023-05-14T13:28:40.435Z,100227.60
2023-05-14T13:31:15.532Z,100224.60
2023-05-14T13:33:49.110Z,100222.60
2023-05-14T13:36:22.312Z,100224.80
2023-05-14T13:38:55.668Z,100221.00
2023-05-14T13:41:30.193Z,100217.00
2023-05-14T13:44:03.377Z,100227.40
2023-05-14T13:46:36.641Z,100217.40
2023-05-14T13:49:09.881Z,100214.00
2023-05-14T13:51:43.102Z,100218.40
2023-05-14T13:54:16.285Z,100213.00
2023-05-14T13:56:49.405Z,100216.00
2023-05-14T13:59:23.991Z,100205.40
2023-05-14T14:01:57.262Z,100203.20
2023-05-14T14:04:30.762Z,100203.40
2023-05-14T14:07:04.155Z,100201.20
2023-05-14T14:09:37.471Z,100204.40
2023-05-14T14:12:12.265Z,100206.20
2023-05-14T14:15:06.273Z,100208.40
2023-05-14T14:18:18.822Z,100205.40
2023-05-14T14:20:53.151Z,100211.40
2023-05-14T14:23:26.793Z,100208.80
2023-05-14T14:26:00.391Z,100208.60
2023-05-14T14:28:33.778Z,100201.40
2023-05-14T14:31:07.293Z,100204.40
2023-05-14T14:33:40.484Z,100200.40
2023-05-14T14:36:13.969Z,100202.40
2023-05-14T14:38:47.312Z,100199.60
2023-05-14T14:41:20.684Z,100201.80
2023-05-14T14:43:54.267Z,100199.60
2023-05-14T14:46:27.621Z,100193.40
2023-05-14T14:49:00.907Z,100193.00
2023-05-14T14:51:34.370Z,100190.40
2023-05-14T14:54:08.134Z,100193.00
2023-05-14T14:56:43.104Z,100188.80
2023-05-14T14:59:16.321Z,100187.60
2023-05-14T15:01:49.642Z,100187.40
2023-05-14T15:04:23.500Z,100184.20
2023-05-14T15:06:56.890Z,100183.20
2023-05-14T15:09:30.393Z,100179.80
2023-05-14T15:12:03.648Z,100174.20
2023-05-14T15:14:37.035Z,100174.40
2023-05-14T15:17:14.779Z,100167.80
2023-05-14T15:19:47.971Z,100166.40
2023-05-14T15:22:21.238Z,100164.60
2023-05-14T15:24:54.381Z,100164.80
2023-05-14T15:27:27.848Z,100160.40
2023-05-14T15:30:01.044Z,100152.80
2023-05-14T15:32:34.774Z,100151.00
2023-05-14T15:35:10.320Z,100154.00
2023-05-14T15:37:45.564Z,100157.20
2023-05-14T15:40:20.171Z,100153.60
2023-05-14T15:42:53.328Z,100150.40
2023-05-14T15:45:26.779Z,100150.20
2023-05-14T15:48:00.103Z,100144.20
2023-05-14T15:50:33.533Z,100138.60
2023-05-14T15:53:06.708Z,100132.60
2023-05-14T15:55:40.000Z,100127.80
2023-05-14T15:58:13.945Z,100122.80
2023-05-14T16:00:47.225Z,100130.00
2023-05-14T16:03:21.483Z,100129.60
2023-05-14T16:06:05.896Z,100127.80
2023-05-14T16:08:39.113Z,100130.60
2023-05-14T16:11:12.279Z,100128.60
2023-05-14T16:13:45.506Z,100128.80
2023-05-14T16:16:19.821Z,100123.00
2023-05-14T16:18:53.717Z,100123.20
2023-05-14T16:21:27.398Z,100126.80
2023-05-14T16:24:00.889Z,100120.80
2023-05-14T16:26:35.195Z,100117.20
2023-05-14T16:29:08.603Z,100110.80
2023-05-14T16:31:42.247Z,100111.60
2023-05-14T16:34:15.529Z,100113.80
2023-05-14T16:36:48.738Z,100112.20
2023-05-14T16:39:21.932Z,100109.60
2023-05-14T16:41:55.182Z,100110.00
2023-05-14T16:44:28.451Z,100105.20
2023-05-14T16:47:01.695Z,100107.20
2023-05-14T16:49:34.873Z,100107.80
2023-05-14T16:52:09.535Z,100108.20
2023-05-14T16:54:42.802Z,100108.40
2023-05-14T16:57:16.190Z,100104.80
2023-05-14T16:59:49.400Z,100108.00
2023-05-14T17:02:22.675Z,100116.80
2023-05-14T17:04:56.103Z,100117.00
2023-05-14T17:07:29.593Z,100113.60
2023-05-14T17:10:02.905Z,100116.20
2023-05-14T17:12:36.955Z,100111.20
2023-05-14T17:15:13.741Z,100111.40
2023-05-14T17:17:47.342Z,100105.40
2023-05-14T17:20:20.563Z,100111.60
2023-05-14T17:22:54.034Z,100112.20
2023-05-14T17:25:27.833Z,100115.00
2023-05-14T17:28:01.112Z,100109.80
2023-05-14T17:30:34.850Z,100109.60
2023-05-14T17:33:08.297Z,100104.00
2023-05-14T17:35:43.909Z,100099.80
2023-05-14T17:38:17.241Z,100102.40
2023-05-14T17:40:50.457Z,100102.00
2023-05-14T17:43:23.714Z,100102.20
2023-05-14T17:45:56.960Z,100098.40
2023-05-14T17:48:30.241Z,100098.40
2023-05-14T17:51:03.539Z,100095.60
2023-05-14T17:53:36.827Z,100098.40
2023-05-14T17:56:11.466Z,100092.20
2023-05-14T17:58:44.673Z,100095.40
2023-05-14T18:01:18.039Z,100095.40
2023-05-14T18:03:51.625Z,100095.60
2023-05-14T18:06:25.004Z,100094.00
2023-05-14T18:08:58.414Z,100089.80
2023-05-14T18:11:34.148Z,100090.00
2023-05-14T18:14:09.735Z,100085.60
2023-05-14T18:16:43.192Z,100085.40
2023-05-14T18:19:16.643Z,100084.00
2023-05-14T18:21:54.665Z,100078.60
2023-05-14T18:24:27.972Z,100083.00
2023-05-14T18:27:01.714Z,100079.20
2023-05-14T18:29:35.089Z,100072.80
2023-05-14T18:32:09.745Z,100072.80
2023-05-14T18:34:42.911Z,100067.40
2023-05-14T18:37:16.286Z,100062.40
2023-05-14T18:39:49.571Z,100061.20
2023-05-14T18:42:22.779Z,100064.20
2023-05-14T18:44:56.074Z,100063.80
2023-05-14T18:47:29.805Z,100061.40
2023-05-14T18:50:03.363Z,100064.80
2023-05-14T18:52:36.728Z,100059.40
2023-05-14T18:55:12.086Z,100064.60
2023-05-14T18:57:45.685Z,100061.80
2023-05-14T19:00:20.711Z,100063.80
2023-05-14T19:02:54.090Z,100064.40
2023-05-14T19:05:28.004Z,100061.20
2023-05-14T19:08:02.236Z,100062.00
2023-05-14T19:10:35.745Z,100060.60
2023-05-14T19:13:09.037Z,100062.40
2023-05-14T19:15:42.271Z,100066.60
2023-05-14T19:18:17.678Z,100062.20
2023-05-14T19:20:51.898Z,100055.80
2023-05-14T19:23:25.082Z,100055.60
2023-05-14T19:25:58.593Z,100049.80
2023-05-14T19:28:32.534Z,100046.20
2023-05-14T19:31:05.847Z,100045.80
2023-05-14T19:33:39.023Z,100043.40
2023-05-14T19:36:12.469Z,100046.00
2023-05-14T19:38:45.636Z,100048.60
2023-05-14T19:41:19.058Z,100050.20
2023-05-14T19:43:52.233Z,100056.60
2023-05-14T19:46:25.659Z,100070.60
2023-05-14T19:48:58.935Z,100082.60
2023-05-14T19:51:32.241Z,100061.00
2023-05-14T19:54:05.701Z,100039.40
2023-05-14T19:56:39.435Z,100029.40
2023-05-14T19:59:12.653Z,100019.00
2023-05-14T20:01:46.152Z,100019.60
2023-05-14T20:04:20.438Z,100013.80
2023-05-14T20:06:53.748Z,100011.80
2023-05-14T20:09:27.175Z,100004.40
2023-05-14T20:12:00.269Z,100004.60
2023-05-14T20:14:34.110Z,100003.20
2023-05-14T20:17:08.551Z,100005.00
2023-05-14T20:19:43.890Z,99999.00
2023-05-14T20:22:17.044Z,99999.60
2023-05-14T20:24:50.205Z,100002.40
2023-05-14T20:27:24.088Z,100007.60
2023-05-14T20:29:57.388Z,100006.00
2023-05-14T20:32:30.566Z,100006.80
2023-05-14T20:35:04.445Z,100007.80
2023-05-14T20:37:37.954Z,100012.20
2023-05-14T20:40:13.846Z,100018.20
2023-05-14T20:42:47.144Z,100005.40
2023-05-14T20:45:20.357Z,99993.40
2023-05-14T20:47:53.676Z,99985.40
2023-05-14T20:50:28.334Z,99982.60
2023-05-14T20:53:01.578Z,99976.40
2023-05-14T20:55:34.860Z,99976.80
2023-05-14T20:58:08.117Z,99980.40
2023-05-14T21:00:41.268Z,99976.20
2023-05-14T21:03:14.604Z,99980.60
2023-05-14T21:05:48.396Z,99982.20
2023-05-14T21:08:21.701Z,99976.80
2023-05-14T21:10:55.012Z,99969.40
2023-05-14T21:13:28.290Z,99950.20
2023-05-14T21:16:01.561Z,99966.00
2023-05-14T21:18:34.808Z,99960.80
2023-05-14T21:21:09.004Z,99965.00
2023-05-14T21:23:42.288Z,99975.00
2023-05-14T21:26:23.672Z,99990.60
2023-05-14T21:28:56.857Z,100001.80
2023-05-14T21:31:30.317Z,100016.00
2023-05-14T21:34:03.645Z,100020.20
2023-05-14T21:36:37.032Z,100017.80
2023-05-14T21:39:10.344Z,100011.40
2023-05-14T21:41:43.647Z,100014.80
2023-05-14T21:44:16.834Z,100015.00
2023-05-14T21:46:50.229Z,100016.20
2023-05-14T21:49:23.536Z,100007.60
2023-05-14T21:51:56.688Z,99998.00
2023-05-14T21:54:29.918Z,99993.60
2023-05-14T21:57:03.295Z,99989.00
2023-05-14T23:34:28.861Z,99845.60
2023-05-14T23:37:02.458Z,99842.20
2023-05-14T23:39:35.762Z,99843.60
2023-05-14T23:42:09.658Z,99843.80
2023-05-14T23:44:42.890Z,99829.40
2023-05-14T23:47:16.392Z,99831.20
2023-05-14T23:49:49.742Z,99822.40
2023-05-14T23:52:22.954Z,99812.00
2023-05-14T23:54:56.126Z,99803.60
2023-05-14T23:57:29.734Z,99797.40
